sensor_id;sensor_type;location;lat;lon;timestamp;temperature;humidity
6865;DHT22;3471;49.678;8.388;2024-01-16T00:00:49;0.40;99.90
6865;DHT22;3471;49.678;8.388;2024-01-16T00:03:15;0.40;99.90
6865;DHT22;3471;49.678;8.388;2024-01-16T00:05:41;0.40;99.90
6865;DHT22;3471;49.678;8.388;2024-01-16T00:08:06;0.40;99.90
6865;DHT22;3471;49.678;8.388;2024-01-16T00:10:32;0.40;99.90
6865;DHT22;3471;49.678;8.388;2024-01-16T00:12:57;0.40;99.90
6865;DHT22;3471;49.678;8.388;2024-01-16T00:15:23;0.40;99.90
6865;DHT22;3471;49.678;8.388;2024-01-16T00:17:49;0.40;99.90
6865;DHT22;3471;49.678;8.388;2024-01-16T00:20:15;0.40;99.90
6865;DHT22;3471;49.678;8.388;2024-01-16T00:22:40;0.40;99.90
6865;DHT22;3471;49.678;8.388;2024-01-16T00:25:06;0.50;99.90
6865;DHT22;3471;49.678;8.388;2024-01-16T00:27:32;0.40;99.90
6865;DHT22;3471;49.678;8.388;2024-01-16T00:29:57;0.40;99.90
6865;DHT22;3471;49.678;8.388;2024-01-16T00:32:23;0.40;99.90
6865;DHT22;3471;49.678;8.388;2024-01-16T00:34:49;0.40;99.90
6865;DHT22;3471;49.678;8.388;2024-01-16T00:37:14;0.40;99.90
6865;DHT22;3471;49.678;8.388;2024-01-16T00:39:40;0.40;99.90
6865;DHT22;3471;49.678;8.388;2024-01-16T00:42:05;0.40;99.90
6865;DHT22;3471;49.678;8.388;2024-01-16T00:44:31;0.40;99.90
6865;DHT22;3471;49.678;8.388;2024-01-16T00:46:57;0.40;99.90
6865;DHT22;3471;49.678;8.388;2024-01-16T00:49:22;0.40;99.90
6865;DHT22;3471;49.678;8.388;2024-01-16T00:51:48;0.30;99.90
6865;DHT22;3471;49.678;8.388;2024-01-16T00:54:14;0.30;99.90
6865;DHT22;3471;49.678;8.388;2024-01-16T00:56:42;0.30;99.90
6865;DHT22;3471;49.678;8.388;2024-01-16T00:59:08;0.30;99.90
6865;DHT22;3471;49.678;8.388;2024-01-16T01:01:33;0.30;99.90
6865;DHT22;3471;49.678;8.388;2024-01-16T01:03:59;0.30;99.90
6865;DHT22;3471;49.678;8.388;2024-01-16T01:06:24;0.20;99.90
6865;DHT22;3471;49.678;8.388;2024-01-16T01:08:50;0.20;99.90
6865;DHT22;3471;49.678;8.388;2024-01-16T01:11:16;0.20;99.90
6865;DHT22;3471;49.678;8.388;2024-01-16T01:13:42;0.20;99.90
6865;DHT22;3471;49.678;8.388;2024-01-16T01:16:07;0.20;99.90
6865;DHT22;3471;49.678;8.388;2024-01-16T01:18:34;0.20;99.90
6865;DHT22;3471;49.678;8.388;2024-01-16T01:21:00;0.20;99.90
6865;DHT22;3471;49.678;8.388;2024-01-16T01:23:25;0.20;99.90
6865;DHT22;3471;49.678;8.388;2024-01-16T01:25:51;0.20;99.90
6865;DHT22;3471;49.678;8.388;2024-01-16T01:28:17;0.20;99.90
6865;DHT22;3471;49.678;8.388;2024-01-16T01:30:42;0.20;99.90
6865;DHT22;3471;49.678;8.388;2024-01-16T01:33:08;0.20;99.90
6865;DHT22;3471;49.678;8.388;2024-01-16T01:35:34;0.30;99.90
6865;DHT22;3471;49.678;8.388;2024-01-16T01:37:59;0.30;99.90
6865;DHT22;3471;49.678;8.388;2024-01-16T01:40:25;0.30;99.90
6865;DHT22;3471;49.678;8.388;2024-01-16T01:42:50;0.30;99.90
6865;DHT22;3471;49.678;8.388;2024-01-16T01:45:16;0.30;99.90
6865;DHT22;3471;49.678;8.388;2024-01-16T01:47:42;0.30;99.90
6865;DHT22;3471;49.678;8.388;2024-01-16T01:50:08;0.30;99.90
6865;DHT22;3471;49.678;8.388;2024-01-16T01:52:35;0.20;99.90
6865;DHT22;3471;49.678;8.388;2024-01-16T01:55:01;0.20;99.90
6865;DHT22;3471;49.678;8.388;2024-01-16T01:57:27;0.20;99.90
6865;DHT22;3471;49.678;8.388;2024-01-16T01:59:53;0.20;99.90
6865;DHT22;3471;49.678;8.388;2024-01-16T02:02:20;0.20;99.90
6865;DHT22;3471;49.678;8.388;2024-01-16T02:04:47;0.20;99.90
6865;DHT22;3471;49.678;8.388;2024-01-16T02:07:13;0.20;99.90
6865;DHT22;3471;49.678;8.388;2024-01-16T02:09:40;0.20;99.90
6865;DHT22;3471;49.678;8.388;2024-01-16T02:12:07;0.20;99.90
6865;DHT22;3471;49.678;8.388;2024-01-16T02:14:32;0.30;99.90
6865;DHT22;3471;49.678;8.388;2024-01-16T02:16:58;0.30;99.90
6865;DHT22;3471;49.678;8.388;2024-01-16T02:19:23;0.30;99.90
6865;DHT22;3471;49.678;8.388;2024-01-16T02:21:54;0.30;99.90
6865;DHT22;3471;49.678;8.388;2024-01-16T02:24:21;0.30;99.90
6865;DHT22;3471;49.678;8.388;2024-01-16T02:26:47;0.30;99.90
6865;DHT22;3471;49.678;8.388;2024-01-16T02:29:12;0.30;99.90
6865;DHT22;3471;49.678;8.388;2024-01-16T02:31:38;0.40;99.90
6865;DHT22;3471;49.678;8.388;2024-01-16T02:34:04;0.40;99.90
6865;DHT22;3471;49.678;8.388;2024-01-16T02:36:30;0.50;99.90
6865;DHT22;3471;49.678;8.388;2024-01-16T02:38:56;0.50;99.90
6865;DHT22;3471;49.678;8.388;2024-01-16T02:41:22;0.50;99.90
6865;DHT22;3471;49.678;8.388;2024-01-16T02:43:48;0.50;99.90
6865;DHT22;3471;49.678;8.388;2024-01-16T02:46:16;0.50;99.90
6865;DHT22;3471;49.678;8.388;2024-01-16T02:48:42;0.50;99.90
6865;DHT22;3471;49.678;8.388;2024-01-16T02:51:08;0.50;99.90
6865;DHT22;3471;49.678;8.388;2024-01-16T02:53:34;0.50;99.90
6865;DHT22;3471;49.678;8.388;2024-01-16T02:56:00;0.50;99.90
6865;DHT22;3471;49.678;8.388;2024-01-16T02:58:26;0.40;99.90
6865;DHT22;3471;49.678;8.388;2024-01-16T03:00:52;0.50;99.90
6865;DHT22;3471;49.678;8.388;2024-01-16T03:03:18;0.50;99.90
6865;DHT22;3471;49.678;8.388;2024-01-16T03:05:44;0.50;99.90
6865;DHT22;3471;49.678;8.388;2024-01-16T03:08:10;0.50;99.90
6865;DHT22;3471;49.678;8.388;2024-01-16T03:10:35;0.50;99.90
6865;DHT22;3471;49.678;8.388;2024-01-16T03:13:01;0.50;99.90
6865;DHT22;3471;49.678;8.388;2024-01-16T03:15:28;0.50;99.90
6865;DHT22;3471;49.678;8.388;2024-01-16T03:17:55;0.50;99.90
6865;DHT22;3471;49.678;8.388;2024-01-16T03:20:21;0.50;99.90
6865;DHT22;3471;49.678;8.388;2024-01-16T03:22:48;0.50;99.90
6865;DHT22;3471;49.678;8.388;2024-01-16T03:25:14;0.50;99.90
6865;DHT22;3471;49.678;8.388;2024-01-16T03:27:40;0.40;99.90
6865;DHT22;3471;49.678;8.388;2024-01-16T03:30:06;0.40;99.90
6865;DHT22;3471;49.678;8.388;2024-01-16T03:32:34;0.40;99.90
6865;DHT22;3471;49.678;8.388;2024-01-16T03:34:59;0.40;99.90
6865;DHT22;3471;49.678;8.388;2024-01-16T03:37:25;0.40;99.90
6865;DHT22;3471;49.678;8.388;2024-01-16T03:39:50;0.30;99.90
6865;DHT22;3471;49.678;8.388;2024-01-16T03:42:16;0.30;99.90
6865;DHT22;3471;49.678;8.388;2024-01-16T03:44:42;0.20;99.90
6865;DHT22;3471;49.678;8.388;2024-01-16T03:47:08;0.10;99.90
6865;DHT22;3471;49.678;8.388;2024-01-16T03:49:33;0.00;99.90
6865;DHT22;3471;49.678;8.388;2024-01-16T03:51:59;-0.10;99.90
6865;DHT22;3471;49.678;8.388;2024-01-16T03:54:25;-0.10;99.90
6865;DHT22;3471;49.678;8.388;2024-01-16T03:56:51;-0.10;99.90
6865;DHT22;3471;49.678;8.388;2024-01-16T03:59:17;-0.10;99.90
6865;DHT22;3471;49.678;8.388;2024-01-16T04:01:42;-0.10;99.90
6865;DHT22;3471;49.678;8.388;2024-01-16T04:04:10;-0.10;99.90
6865;DHT22;3471;49.678;8.388;2024-01-16T04:06:36;-0.10;99.90
6865;DHT22;3471;49.678;8.388;2024-01-16T04:09:02;0.00;99.90
6865;DHT22;3471;49.678;8.388;2024-01-16T04:11:28;0.00;99.90
6865;DHT22;3471;49.678;8.388;2024-01-16T04:13:54;0.10;99.90
6865;DHT22;3471;49.678;8.388;2024-01-16T04:16:20;0.10;99.90
6865;DHT22;3471;49.678;8.388;2024-01-16T04:18:46;0.10;99.90
6865;DHT22;3471;49.678;8.388;2024-01-16T04:21:11;0.20;99.90
6865;DHT22;3471;49.678;8.388;2024-01-16T04:23:37;0.20;99.90
6865;DHT22;3471;49.678;8.388;2024-01-16T04:26:03;0.20;99.90
6865;DHT22;3471;49.678;8.388;2024-01-16T04:28:28;0.30;99.90
6865;DHT22;3471;49.678;8.388;2024-01-16T04:30:54;0.30;99.90
6865;DHT22;3471;49.678;8.388;2024-01-16T04:33:20;0.30;99.90
6865;DHT22;3471;49.678;8.388;2024-01-16T04:35:45;0.30;99.90
6865;DHT22;3471;49.678;8.388;2024-01-16T04:38:11;0.30;99.90
6865;DHT22;3471;49.678;8.388;2024-01-16T04:40:37;0.30;99.90
6865;DHT22;3471;49.678;8.388;2024-01-16T04:43:02;0.30;99.90
6865;DHT22;3471;49.678;8.388;2024-01-16T04:45:28;0.30;99.90
6865;DHT22;3471;49.678;8.388;2024-01-16T04:47:54;0.30;99.90
6865;DHT22;3471;49.678;8.388;2024-01-16T04:50:19;0.30;99.90
6865;DHT22;3471;49.678;8.388;2024-01-16T04:52:45;0.30;99.90
6865;DHT22;3471;49.678;8.388;2024-01-16T04:55:11;0.30;99.90
6865;DHT22;3471;49.678;8.388;2024-01-16T04:57:36;0.30;99.90
6865;DHT22;3471;49.678;8.388;2024-01-16T05:00:02;0.30;99.90
6865;DHT22;3471;49.678;8.388;2024-01-16T05:02:32;0.30;99.90
6865;DHT22;3471;49.678;8.388;2024-01-16T05:04:58;0.30;99.90
6865;DHT22;3471;49.678;8.388;2024-01-16T05:07:24;0.30;99.90
6865;DHT22;3471;49.678;8.388;2024-01-16T05:09:49;0.20;99.90
6865;DHT22;3471;49.678;8.388;2024-01-16T05:12:15;0.20;99.90
6865;DHT22;3471;49.678;8.388;2024-01-16T05:14:41;0.10;99.90
6865;DHT22;3471;49.678;8.388;2024-01-16T05:17:06;0.10;99.90
6865;DHT22;3471;49.678;8.388;2024-01-16T05:19:32;0.10;99.90
6865;DHT22;3471;49.678;8.388;2024-01-16T05:21:57;0.10;99.90
6865;DHT22;3471;49.678;8.388;2024-01-16T05:24:23;0.10;99.90
6865;DHT22;3471;49.678;8.388;2024-01-16T05:26:49;0.00;99.90
6865;DHT22;3471;49.678;8.388;2024-01-16T05:29:14;0.00;99.90
6865;DHT22;3471;49.678;8.388;2024-01-16T05:31:43;-0.10;99.90
6865;DHT22;3471;49.678;8.388;2024-01-16T05:34:11;-0.10;99.90
6865;DHT22;3471;49.678;8.388;2024-01-16T05:36:37;-0.20;99.90
6865;DHT22;3471;49.678;8.388;2024-01-16T05:39:03;-0.20;99.90
6865;DHT22;3471;49.678;8.388;2024-01-16T05:41:35;-0.20;99.90
6865;DHT22;3471;49.678;8.388;2024-01-16T05:44:01;-0.20;99.90
6865;DHT22;3471;49.678;8.388;2024-01-16T05:46:31;-0.20;99.90
6865;DHT22;3471;49.678;8.388;2024-01-16T05:48:57;-0.20;99.90
6865;DHT22;3471;49.678;8.388;2024-01-16T05:51:23;-0.30;99.90
6865;DHT22;3471;49.678;8.388;2024-01-16T05:53:49;-0.30;99.90
6865;DHT22;3471;49.678;8.388;2024-01-16T05:56:14;-0.30;99.90
6865;DHT22;3471;49.678;8.388;2024-01-16T05:58:40;-0.30;99.90
6865;DHT22;3471;49.678;8.388;2024-01-16T06:01:05;-0.30;99.90
6865;DHT22;3471;49.678;8.388;2024-01-16T06:03:31;-0.40;99.90
6865;DHT22;3471;49.678;8.388;2024-01-16T06:05:57;-0.50;99.90
6865;DHT22;3471;49.678;8.388;2024-01-16T06:08:23;-0.50;99.90
6865;DHT22;3471;49.678;8.388;2024-01-16T06:10:49;-0.60;99.90
6865;DHT22;3471;49.678;8.388;2024-01-16T06:13:14;-0.60;99.90
6865;DHT22;3471;49.678;8.388;2024-01-16T06:15:40;-0.60;99.90
6865;DHT22;3471;49.678;8.388;2024-01-16T06:18:05;-0.60;99.90
6865;DHT22;3471;49.678;8.388;2024-01-16T06:20:31;-0.50;99.90
6865;DHT22;3471;49.678;8.388;2024-01-16T06:22:58;-0.50;99.90
6865;DHT22;3471;49.678;8.388;2024-01-16T06:25:23;-0.50;99.90
6865;DHT22;3471;49.678;8.388;2024-01-16T06:27:49;-0.50;99.90
6865;DHT22;3471;49.678;8.388;2024-01-16T06:30:14;-0.50;99.90
6865;DHT22;3471;49.678;8.388;2024-01-16T06:32:40;-0.50;99.90
6865;DHT22;3471;49.678;8.388;2024-01-16T06:35:06;-0.40;99.90
6865;DHT22;3471;49.678;8.388;2024-01-16T06:37:33;-0.40;99.90
6865;DHT22;3471;49.678;8.388;2024-01-16T06:39:58;-0.40;99.90
6865;DHT22;3471;49.678;8.388;2024-01-16T06:42:24;-0.40;99.90
6865;DHT22;3471;49.678;8.388;2024-01-16T06:44:50;-0.40;99.90
6865;DHT22;3471;49.678;8.388;2024-01-16T06:47:15;-0.40;99.90
6865;DHT22;3471;49.678;8.388;2024-01-16T06:49:41;-0.30;99.90
6865;DHT22;3471;49.678;8.388;2024-01-16T06:52:09;-0.40;99.90
6865;DHT22;3471;49.678;8.388;2024-01-16T06:54:35;-0.30;99.90
6865;DHT22;3471;49.678;8.388;2024-01-16T06:57:00;-0.30;99.90
6865;DHT22;3471;49.678;8.388;2024-01-16T06:59:26;-0.30;99.90
6865;DHT22;3471;49.678;8.388;2024-01-16T07:01:52;-0.30;99.90
6865;DHT22;3471;49.678;8.388;2024-01-16T07:04:17;-0.30;99.90
6865;DHT22;3471;49.678;8.388;2024-01-16T07:06:43;-0.30;99.90
6865;DHT22;3471;49.678;8.388;2024-01-16T07:09:09;-0.30;99.90
6865;DHT22;3471;49.678;8.388;2024-01-16T07:11:37;-0.30;99.90
6865;DHT22;3471;49.678;8.388;2024-01-16T07:14:03;-0.30;99.90
6865;DHT22;3471;49.678;8.388;2024-01-16T07:16:29;-0.30;99.90
6865;DHT22;3471;49.678;8.388;2024-01-16T07:18:54;-0.30;99.90
6865;DHT22;3471;49.678;8.388;2024-01-16T07:21:21;-0.40;99.90
6865;DHT22;3471;49.678;8.388;2024-01-16T07:23:47;-0.40;99.90
6865;DHT22;3471;49.678;8.388;2024-01-16T07:26:12;-0.40;99.90
6865;DHT22;3471;49.678;8.388;2024-01-16T07:28:38;-0.30;99.90
6865;DHT22;3471;49.678;8.388;2024-01-16T07:31:04;-0.30;99.90
6865;DHT22;3471;49.678;8.388;2024-01-16T07:33:33;-0.30;99.90
6865;DHT22;3471;49.678;8.388;2024-01-16T07:35:59;-0.30;99.90
6865;DHT22;3471;49.678;8.388;2024-01-16T07:38:24;-0.20;99.90
6865;DHT22;3471;49.678;8.388;2024-01-16T07:40:50;-0.20;99.90
6865;DHT22;3471;49.678;8.388;2024-01-16T07:43:15;-0.20;99.90
6865;DHT22;3471;49.678;8.388;2024-01-16T07:45:41;-0.20;99.90
6865;DHT22;3471;49.678;8.388;2024-01-16T07:48:07;-0.10;99.90
6865;DHT22;3471;49.678;8.388;2024-01-16T07:50:33;-0.10;99.90
6865;DHT22;3471;49.678;8.388;2024-01-16T07:52:59;-0.10;99.90
6865;DHT22;3471;49.678;8.388;2024-01-16T07:55:25;0.00;99.90
6865;DHT22;3471;49.678;8.388;2024-01-16T07:57:50;0.00;99.90
6865;DHT22;3471;49.678;8.388;2024-01-16T08:00:16;0.00;99.90
6865;DHT22;3471;49.678;8.388;2024-01-16T08:02:42;0.00;99.90
6865;DHT22;3471;49.678;8.388;2024-01-16T08:05:07;0.00;99.90
6865;DHT22;3471;49.678;8.388;2024-01-16T08:07:33;0.10;99.90
6865;DHT22;3471;49.678;8.388;2024-01-16T08:10:00;0.10;99.90
6865;DHT22;3471;49.678;8.388;2024-01-16T08:12:26;0.10;99.90
6865;DHT22;3471;49.678;8.388;2024-01-16T08:14:51;0.10;99.90
6865;DHT22;3471;49.678;8.388;2024-01-16T08:17:17;0.10;99.90
6865;DHT22;3471;49.678;8.388;2024-01-16T08:19:43;0.20;99.90
6865;DHT22;3471;49.678;8.388;2024-01-16T08:22:08;0.30;99.90
6865;DHT22;3471;49.678;8.388;2024-01-16T08:24:34;0.30;99.90
6865;DHT22;3471;49.678;8.388;2024-01-16T08:27:00;0.30;99.90
6865;DHT22;3471;49.678;8.388;2024-01-16T08:29:25;0.40;99.90
6865;DHT22;3471;49.678;8.388;2024-01-16T08:31:51;0.40;99.90
6865;DHT22;3471;49.678;8.388;2024-01-16T08:34:19;0.50;99.90
6865;DHT22;3471;49.678;8.388;2024-01-16T08:36:45;0.50;99.90
6865;DHT22;3471;49.678;8.388;2024-01-16T08:39:11;0.60;99.90
6865;DHT22;3471;49.678;8.388;2024-01-16T08:41:36;0.60;99.90
6865;DHT22;3471;49.678;8.388;2024-01-16T08:44:02;0.70;99.90
6865;DHT22;3471;49.678;8.388;2024-01-16T08:46:28;0.70;99.90
6865;DHT22;3471;49.678;8.388;2024-01-16T08:48:54;0.80;99.90
6865;DHT22;3471;49.678;8.388;2024-01-16T08:51:19;0.80;99.90
6865;DHT22;3471;49.678;8.388;2024-01-16T08:53:45;0.90;99.90
6865;DHT22;3471;49.678;8.388;2024-01-16T08:56:11;1.00;99.90
6865;DHT22;3471;49.678;8.388;2024-01-16T08:58:38;1.00;99.90
6865;DHT22;3471;49.678;8.388;2024-01-16T09:01:05;1.00;99.90
6865;DHT22;3471;49.678;8.388;2024-01-16T09:03:35;1.10;99.90
6865;DHT22;3471;49.678;8.388;2024-01-16T09:06:00;1.20;99.90
6865;DHT22;3471;49.678;8.388;2024-01-16T09:08:26;1.20;99.90
6865;DHT22;3471;49.678;8.388;2024-01-16T09:10:53;1.30;99.90
6865;DHT22;3471;49.678;8.388;2024-01-16T09:13:19;1.30;99.90
6865;DHT22;3471;49.678;8.388;2024-01-16T09:15:46;1.40;99.90
6865;DHT22;3471;49.678;8.388;2024-01-16T09:18:12;1.50;99.90
6865;DHT22;3471;49.678;8.388;2024-01-16T09:20:38;1.50;99.90
6865;DHT22;3471;49.678;8.388;2024-01-16T09:23:04;1.50;99.90
6865;DHT22;3471;49.678;8.388;2024-01-16T09:25:29;1.50;99.90
6865;DHT22;3471;49.678;8.388;2024-01-16T09:27:55;1.50;99.90
6865;DHT22;3471;49.678;8.388;2024-01-16T09:30:21;1.50;99.90
6865;DHT22;3471;49.678;8.388;2024-01-16T09:32:48;1.60;99.90
6865;DHT22;3471;49.678;8.388;2024-01-16T09:35:14;1.60;99.90
6865;DHT22;3471;49.678;8.388;2024-01-16T09:37:39;1.60;99.90
6865;DHT22;3471;49.678;8.388;2024-01-16T09:40:06;1.60;99.90
6865;DHT22;3471;49.678;8.388;2024-01-16T09:42:32;1.70;99.90
6865;DHT22;3471;49.678;8.388;2024-01-16T09:45:00;1.70;99.90
6865;DHT22;3471;49.678;8.388;2024-01-16T09:47:26;1.80;99.90
6865;DHT22;3471;49.678;8.388;2024-01-16T09:49:52;1.80;99.90
6865;DHT22;3471;49.678;8.388;2024-01-16T09:52:20;1.90;99.90
6865;DHT22;3471;49.678;8.388;2024-01-16T09:54:45;2.00;99.90
6865;DHT22;3471;49.678;8.388;2024-01-16T09:57:12;2.00;99.90
6865;DHT22;3471;49.678;8.388;2024-01-16T09:59:40;2.00;99.90
6865;DHT22;3471;49.678;8.388;2024-01-16T10:02:09;2.00;99.90
6865;DHT22;3471;49.678;8.388;2024-01-16T10:04:36;2.00;99.90
6865;DHT22;3471;49.678;8.388;2024-01-16T10:07:04;2.00;99.90
6865;DHT22;3471;49.678;8.388;2024-01-16T10:09:30;2.00;99.90
6865;DHT22;3471;49.678;8.388;2024-01-16T10:11:56;2.00;99.90
6865;DHT22;3471;49.678;8.388;2024-01-16T10:14:23;2.00;99.90
6865;DHT22;3471;49.678;8.388;2024-01-16T10:17:02;2.10;99.90
6865;DHT22;3471;49.678;8.388;2024-01-16T10:19:31;2.20;99.90
6865;DHT22;3471;49.678;8.388;2024-01-16T10:22:04;2.30;99.90
6865;DHT22;3471;49.678;8.388;2024-01-16T10:24:30;2.30;99.90
6865;DHT22;3471;49.678;8.388;2024-01-16T10:27:00;2.40;99.90
6865;DHT22;3471;49.678;8.388;2024-01-16T10:29:26;2.50;99.90
6865;DHT22;3471;49.678;8.388;2024-01-16T10:31:52;2.60;99.90
6865;DHT22;3471;49.678;8.388;2024-01-16T10:34:22;2.70;99.90
6865;DHT22;3471;49.678;8.388;2024-01-16T10:36:51;2.80;99.90
6865;DHT22;3471;49.678;8.388;2024-01-16T10:39:20;3.00;99.90
6865;DHT22;3471;49.678;8.388;2024-01-16T10:41:57;3.30;99.90
6865;DHT22;3471;49.678;8.388;2024-01-16T10:44:23;3.70;99.90
6865;DHT22;3471;49.678;8.388;2024-01-16T10:46:49;4.10;99.90
6865;DHT22;3471;49.678;8.388;2024-01-16T10:49:14;4.40;99.90
6865;DHT22;3471;49.678;8.388;2024-01-16T10:51:43;4.50;99.90
6865;DHT22;3471;49.678;8.388;2024-01-16T10:54:12;4.60;99.90
6865;DHT22;3471;49.678;8.388;2024-01-16T10:56:44;4.50;99.90
6865;DHT22;3471;49.678;8.388;2024-01-16T10:59:21;4.50;99.90
6865;DHT22;3471;49.678;8.388;2024-01-16T11:01:51;4.40;99.90
6865;DHT22;3471;49.678;8.388;2024-01-16T11:04:20;4.40;99.90
6865;DHT22;3471;49.678;8.388;2024-01-16T11:06:52;4.30;99.90
6865;DHT22;3471;49.678;8.388;2024-01-16T11:09:18;4.30;99.90
6865;DHT22;3471;49.678;8.388;2024-01-16T11:11:46;4.10;99.90
6865;DHT22;3471;49.678;8.388;2024-01-16T11:14:13;4.00;99.90
6865;DHT22;3471;49.678;8.388;2024-01-16T11:16:39;3.90;99.90
6865;DHT22;3471;49.678;8.388;2024-01-16T11:19:08;3.80;99.90
6865;DHT22;3471;49.678;8.388;2024-01-16T11:21:35;3.70;99.90
6865;DHT22;3471;49.678;8.388;2024-01-16T11:24:01;3.70;99.90
6865;DHT22;3471;49.678;8.388;2024-01-16T11:26:31;3.60;99.90
6865;DHT22;3471;49.678;8.388;2024-01-16T11:31:53;3.70;99.90
6865;DHT22;3471;49.678;8.388;2024-01-16T11:34:52;4.00;99.90
6865;DHT22;3471;49.678;8.388;2024-01-16T11:37:30;4.40;99.90
6865;DHT22;3471;49.678;8.388;2024-01-16T11:42:43;5.30;99.90
6865;DHT22;3471;49.678;8.388;2024-01-16T11:48:10;5.20;99.90
6865;DHT22;3471;49.678;8.388;2024-01-16T11:50:36;5.10;99.90
6865;DHT22;3471;49.678;8.388;2024-01-16T11:53:02;5.00;99.90
6865;DHT22;3471;49.678;8.388;2024-01-16T11:55:29;5.00;99.90
6865;DHT22;3471;49.678;8.388;2024-01-16T12:00:36;5.30;99.90
6865;DHT22;3471;49.678;8.388;2024-01-16T12:03:06;6.00;99.90
6865;DHT22;3471;49.678;8.388;2024-01-16T12:05:32;7.10;99.90
6865;DHT22;3471;49.678;8.388;2024-01-16T12:07:57;8.20;99.90
6865;DHT22;3471;49.678;8.388;2024-01-16T12:10:24;8.90;99.90
6865;DHT22;3471;49.678;8.388;2024-01-16T12:12:51;9.80;99.90
6865;DHT22;3471;49.678;8.388;2024-01-16T12:15:21;10.80;99.90
6865;DHT22;3471;49.678;8.388;2024-01-16T12:17:54;11.90;99.90
6865;DHT22;3471;49.678;8.388;2024-01-16T12:20:21;12.90;98.60
6865;DHT22;3471;49.678;8.388;2024-01-16T12:23:16;13.80;97.10
6865;DHT22;3471;49.678;8.388;2024-01-16T12:25:42;14.70;93.80
6865;DHT22;3471;49.678;8.388;2024-01-16T12:28:08;15.40;92.30
6865;DHT22;3471;49.678;8.388;2024-01-16T12:30:37;15.90;91.80
6865;DHT22;3471;49.678;8.388;2024-01-16T12:33:10;16.50;89.90
6865;DHT22;3471;49.678;8.388;2024-01-16T12:35:37;17.00;87.80
6865;DHT22;3471;49.678;8.388;2024-01-16T12:38:04;17.20;85.90
6865;DHT22;3471;49.678;8.388;2024-01-16T12:40:35;17.40;84.40
6865;DHT22;3471;49.678;8.388;2024-01-16T12:43:05;17.60;82.10
6865;DHT22;3471;49.678;8.388;2024-01-16T12:45:31;17.70;82.80
6865;DHT22;3471;49.678;8.388;2024-01-16T12:47:58;17.90;80.30
6865;DHT22;3471;49.678;8.388;2024-01-16T12:50:28;18.10;78.50
6865;DHT22;3471;49.678;8.388;2024-01-16T12:55:35;18.30;75.50
6865;DHT22;3471;49.678;8.388;2024-01-16T12:58:20;18.30;76.30
6865;DHT22;3471;49.678;8.388;2024-01-16T13:00:47;18.50;75.20
6865;DHT22;3471;49.678;8.388;2024-01-16T13:03:17;18.60;69.80
6865;DHT22;3471;49.678;8.388;2024-01-16T13:05:44;18.50;70.60
6865;DHT22;3471;49.678;8.388;2024-01-16T13:08:16;18.30;70.10
6865;DHT22;3471;49.678;8.388;2024-01-16T13:10:42;18.10;70.80
6865;DHT22;3471;49.678;8.388;2024-01-16T13:13:12;17.90;67.90
6865;DHT22;3471;49.678;8.388;2024-01-16T13:15:38;17.70;69.40
6865;DHT22;3471;49.678;8.388;2024-01-16T13:18:04;17.60;69.00
6865;DHT22;3471;49.678;8.388;2024-01-16T13:20:29;17.60;66.80
6865;DHT22;3471;49.678;8.388;2024-01-16T13:22:55;17.60;70.30
6865;DHT22;3471;49.678;8.388;2024-01-16T13:25:21;17.80;67.60
6865;DHT22;3471;49.678;8.388;2024-01-16T13:27:47;17.90;67.00
6865;DHT22;3471;49.678;8.388;2024-01-16T13:30:12;18.10;66.80
6865;DHT22;3471;49.678;8.388;2024-01-16T13:32:40;18.20;67.60
6865;DHT22;3471;49.678;8.388;2024-01-16T13:35:05;18.10;66.20
6865;DHT22;3471;49.678;8.388;2024-01-16T13:37:34;18.10;67.50
6865;DHT22;3471;49.678;8.388;2024-01-16T13:40:04;18.00;65.30
6865;DHT22;3471;49.678;8.388;2024-01-16T13:42:34;17.90;65.40
6865;DHT22;3471;49.678;8.388;2024-01-16T13:45:00;18.00;64.90
6865;DHT22;3471;49.678;8.388;2024-01-16T13:47:26;18.20;65.90
6865;DHT22;3471;49.678;8.388;2024-01-16T13:49:51;18.10;69.50
6865;DHT22;3471;49.678;8.388;2024-01-16T13:52:17;18.00;62.90
6865;DHT22;3471;49.678;8.388;2024-01-16T13:54:43;18.00;63.50
6865;DHT22;3471;49.678;8.388;2024-01-16T13:57:09;18.00;64.00
6865;DHT22;3471;49.678;8.388;2024-01-16T13:59:35;18.20;62.10
6865;DHT22;3471;49.678;8.388;2024-01-16T14:02:02;18.20;67.80
6865;DHT22;3471;49.678;8.388;2024-01-16T14:04:28;18.30;64.40
6865;DHT22;3471;49.678;8.388;2024-01-16T14:06:54;18.10;65.00
6865;DHT22;3471;49.678;8.388;2024-01-16T14:09:20;17.90;63.90
6865;DHT22;3471;49.678;8.388;2024-01-16T14:11:46;17.30;61.80
6865;DHT22;3471;49.678;8.388;2024-01-16T14:14:11;16.40;63.30
6865;DHT22;3471;49.678;8.388;2024-01-16T14:16:38;15.20;65.60
6865;DHT22;3471;49.678;8.388;2024-01-16T14:19:04;13.90;66.80
6865;DHT22;3471;49.678;8.388;2024-01-16T14:21:29;12.70;69.90
6865;DHT22;3471;49.678;8.388;2024-01-16T14:23:55;11.70;69.80
6865;DHT22;3471;49.678;8.388;2024-01-16T14:26:21;10.80;72.90
6865;DHT22;3471;49.678;8.388;2024-01-16T14:28:46;10.10;72.50
6865;DHT22;3471;49.678;8.388;2024-01-16T14:31:12;9.40;76.50
6865;DHT22;3471;49.678;8.388;2024-01-16T14:33:44;8.90;77.10
6865;DHT22;3471;49.678;8.388;2024-01-16T14:36:09;8.80;82.70
6865;DHT22;3471;49.678;8.388;2024-01-16T14:38:35;9.00;82.20
6865;DHT22;3471;49.678;8.388;2024-01-16T14:41:01;9.40;82.00
6865;DHT22;3471;49.678;8.388;2024-01-16T14:43:26;9.80;81.80
6865;DHT22;3471;49.678;8.388;2024-01-16T14:45:52;10.40;80.10
6865;DHT22;3471;49.678;8.388;2024-01-16T14:48:17;10.90;78.90
6865;DHT22;3471;49.678;8.388;2024-01-16T14:50:43;11.20;80.30
6865;DHT22;3471;49.678;8.388;2024-01-16T14:53:09;11.50;77.10
6865;DHT22;3471;49.678;8.388;2024-01-16T14:55:34;11.60;79.60
6865;DHT22;3471;49.678;8.388;2024-01-16T14:58:00;11.60;78.90
6865;DHT22;3471;49.678;8.388;2024-01-16T15:00:26;11.70;76.40
6865;DHT22;3471;49.678;8.388;2024-01-16T15:02:55;11.80;74.80
6865;DHT22;3471;49.678;8.388;2024-01-16T15:05:22;11.80;73.80
6865;DHT22;3471;49.678;8.388;2024-01-16T15:07:49;11.90;73.90
6865;DHT22;3471;49.678;8.388;2024-01-16T15:10:17;11.80;75.20
6865;DHT22;3471;49.678;8.388;2024-01-16T15:12:43;11.80;74.20
6865;DHT22;3471;49.678;8.388;2024-01-16T15:15:10;11.70;78.40
6865;DHT22;3471;49.678;8.388;2024-01-16T15:17:37;11.50;78.50
6865;DHT22;3471;49.678;8.388;2024-01-16T15:20:03;11.30;76.80
6865;DHT22;3471;49.678;8.388;2024-01-16T15:22:44;11.00;77.10
6865;DHT22;3471;49.678;8.388;2024-01-16T15:25:10;10.40;76.50
6865;DHT22;3471;49.678;8.388;2024-01-16T15:27:35;9.80;76.30
6865;DHT22;3471;49.678;8.388;2024-01-16T15:30:03;9.10;79.90
6865;DHT22;3471;49.678;8.388;2024-01-16T15:32:29;8.50;80.30
6865;DHT22;3471;49.678;8.388;2024-01-16T15:34:55;7.90;81.80
6865;DHT22;3471;49.678;8.388;2024-01-16T15:37:20;7.40;90.30
6865;DHT22;3471;49.678;8.388;2024-01-16T15:39:46;6.90;85.30
6865;DHT22;3471;49.678;8.388;2024-01-16T15:42:12;6.50;85.70
6865;DHT22;3471;49.678;8.388;2024-01-16T15:44:37;6.00;86.90
6865;DHT22;3471;49.678;8.388;2024-01-16T15:47:03;5.60;89.40
6865;DHT22;3471;49.678;8.388;2024-01-16T15:49:30;5.30;89.00
6865;DHT22;3471;49.678;8.388;2024-01-16T15:52:01;5.00;90.70
6865;DHT22;3471;49.678;8.388;2024-01-16T15:54:27;4.80;91.40
6865;DHT22;3471;49.678;8.388;2024-01-16T15:56:56;4.60;92.10
6865;DHT22;3471;49.678;8.388;2024-01-16T15:59:22;4.40;91.90
6865;DHT22;3471;49.678;8.388;2024-01-16T16:01:47;4.20;92.40
6865;DHT22;3471;49.678;8.388;2024-01-16T16:04:13;4.00;93.00
6865;DHT22;3471;49.678;8.388;2024-01-16T16:06:39;3.80;93.20
6865;DHT22;3471;49.678;8.388;2024-01-16T16:09:06;3.70;94.10
6865;DHT22;3471;49.678;8.388;2024-01-16T16:11:38;3.50;94.10
6865;DHT22;3471;49.678;8.388;2024-01-16T16:14:07;3.40;94.70
6865;DHT22;3471;49.678;8.388;2024-01-16T16:16:32;3.30;95.30
6865;DHT22;3471;49.678;8.388;2024-01-16T16:18:59;3.20;97.70
6865;DHT22;3471;49.678;8.388;2024-01-16T16:21:25;3.10;97.10